sensor_id;sensor_type;location;lat;lon;timestamp;temperature;humidity
75466;HTU21D;64049;46.290;44.240;2023-12-22T00:00:32;2.26;83.81
75466;HTU21D;64049;46.290;44.240;2023-12-22T00:02:58;2.26;83.79
75466;HTU21D;64049;46.290;44.240;2023-12-22T00:05:24;2.27;83.83
75466;HTU21D;64049;46.290;44.240;2023-12-22T00:07:50;2.28;83.81
75466;HTU21D;64049;46.290;44.240;2023-12-22T00:10:16;2.29;83.82
75466;HTU21D;64049;46.290;44.240;2023-12-22T00:12:42;2.32;83.84
75466;HTU21D;64049;46.290;44.240;2023-12-22T00:15:08;2.32;83.81
75466;HTU21D;64049;46.290;44.240;2023-12-22T00:17:34;2.31;83.81
75466;HTU21D;64049;46.290;44.240;2023-12-22T00:20:00;2.31;83.80
75466;HTU21D;64049;46.290;44.240;2023-12-22T00:22:29;2.30;83.81
75466;HTU21D;64049;46.290;44.240;2023-12-22T00:24:56;2.31;83.84
75466;HTU21D;64049;46.290;44.240;2023-12-22T00:27:22;2.32;83.84
75466;HTU21D;64049;46.290;44.240;2023-12-22T00:29:47;2.35;83.85
75466;HTU21D;64049;46.290;44.240;2023-12-22T00:32:13;2.37;83.83
75466;HTU21D;64049;46.290;44.240;2023-12-22T00:34:39;2.39;83.84
75466;HTU21D;64049;46.290;44.240;2023-12-22T00:37:05;2.39;83.83
75466;HTU21D;64049;46.290;44.240;2023-12-22T00:39:31;2.38;83.84
75466;HTU21D;64049;46.290;44.240;2023-12-22T00:41:58;2.37;83.87
75466;HTU21D;64049;46.290;44.240;2023-12-22T00:44:23;2.38;83.85
75466;HTU21D;64049;46.290;44.240;2023-12-22T00:46:53;2.37;83.86
75466;HTU21D;64049;46.290;44.240;2023-12-22T00:49:19;2.38;83.90
75466;HTU21D;64049;46.290;44.240;2023-12-22T00:51:47;2.40;83.90
75466;HTU21D;64049;46.290;44.240;2023-12-22T00:54:13;2.40;83.89
75466;HTU21D;64049;46.290;44.240;2023-12-22T00:56:39;2.40;83.90
75466;HTU21D;64049;46.290;44.240;2023-12-22T00:59:05;2.40;83.89
75466;HTU21D;64049;46.290;44.240;2023-12-22T01:01:31;2.40;83.90
75466;HTU21D;64049;46.290;44.240;2023-12-22T01:03:57;2.40;83.92
75466;HTU21D;64049;46.290;44.240;2023-12-22T01:06:23;2.42;83.93
75466;HTU21D;64049;46.290;44.240;2023-12-22T01:08:49;2.42;83.93
75466;HTU21D;64049;46.290;44.240;2023-12-22T01:11:18;2.44;83.91
75466;HTU21D;64049;46.290;44.240;2023-12-22T01:13:44;2.43;83.94
75466;HTU21D;64049;46.290;44.240;2023-12-22T01:16:10;2.40;83.91
75466;HTU21D;64049;46.290;44.240;2023-12-22T01:18:36;2.40;83.95
75466;HTU21D;64049;46.290;44.240;2023-12-22T01:21:03;2.41;83.97
75466;HTU21D;64049;46.290;44.240;2023-12-22T01:23:29;2.40;83.98
75466;HTU21D;64049;46.290;44.240;2023-12-22T01:25:55;2.41;84.00
75466;HTU21D;64049;46.290;44.240;2023-12-22T01:28:21;2.41;84.00
75466;HTU21D;64049;46.290;44.240;2023-12-22T01:30:47;2.43;84.01
75466;HTU21D;64049;46.290;44.240;2023-12-22T01:33:13;2.42;83.98
75466;HTU21D;64049;46.290;44.240;2023-12-22T01:35:39;2.42;84.01
75466;HTU21D;64049;46.290;44.240;2023-12-22T01:38:05;2.41;84.02
75466;HTU21D;64049;46.290;44.240;2023-12-22T01:40:30;2.41;84.05
75466;HTU21D;64049;46.290;44.240;2023-12-22T01:42:57;2.41;84.05
75466;HTU21D;64049;46.290;44.240;2023-12-22T01:45:25;2.42;84.07
75466;HTU21D;64049;46.290;44.240;2023-12-22T01:47:51;2.42;84.07
75466;HTU21D;64049;46.290;44.240;2023-12-22T01:50:17;2.40;84.07
75466;HTU21D;64049;46.290;44.240;2023-12-22T01:52:44;2.41;84.09
75466;HTU21D;64049;46.290;44.240;2023-12-22T01:55:11;2.41;84.09
75466;HTU21D;64049;46.290;44.240;2023-12-22T01:57:39;2.42;84.09
75466;HTU21D;64049;46.290;44.240;2023-12-22T02:00:07;2.40;84.10
75466;HTU21D;64049;46.290;44.240;2023-12-22T02:02:37;2.40;84.11
75466;HTU21D;64049;46.290;44.240;2023-12-22T02:05:05;2.40;84.09
75466;HTU21D;64049;46.290;44.240;2023-12-22T02:07:34;2.40;84.13
75466;HTU21D;64049;46.290;44.240;2023-12-22T02:10:01;2.42;84.14
75466;HTU21D;64049;46.290;44.240;2023-12-22T02:12:27;2.44;84.12
75466;HTU21D;64049;46.290;44.240;2023-12-22T02:14:53;2.45;84.11
75466;HTU21D;64049;46.290;44.240;2023-12-22T02:17:24;2.43;84.11
75466;HTU21D;64049;46.290;44.240;2023-12-22T02:19:51;2.42;84.13
75466;HTU21D;64049;46.290;44.240;2023-12-22T02:22:17;2.42;84.14
75466;HTU21D;64049;46.290;44.240;2023-12-22T02:24:43;2.40;84.16
75466;HTU21D;64049;46.290;44.240;2023-12-22T02:32:31;2.39;84.22
75466;HTU21D;64049;46.290;44.240;2023-12-22T02:34:58;2.38;84.21
75466;HTU21D;64049;46.290;44.240;2023-12-22T02:37:28;2.37;84.24
75466;HTU21D;64049;46.290;44.240;2023-12-22T02:39:55;2.37;84.26
75466;HTU21D;64049;46.290;44.240;2023-12-22T02:42:22;2.36;84.25
75466;HTU21D;64049;46.290;44.240;2023-12-22T02:44:52;2.35;84.26
75466;HTU21D;64049;46.290;44.240;2023-12-22T02:47:18;2.34;84.29
75466;HTU21D;64049;46.290;44.240;2023-12-22T02:49:44;2.31;84.29
75466;HTU21D;64049;46.290;44.240;2023-12-22T02:52:10;2.29;84.30
75466;HTU21D;64049;46.290;44.240;2023-12-22T02:54:36;2.28;84.33
75466;HTU21D;64049;46.290;44.240;2023-12-22T02:57:07;2.27;84.35
75466;HTU21D;64049;46.290;44.240;2023-12-22T02:59:34;2.29;84.39
75466;HTU21D;64049;46.290;44.240;2023-12-22T03:02:00;2.31;84.37
75466;HTU21D;64049;46.290;44.240;2023-12-22T03:16:24;2.83;85.38
75466;HTU21D;64049;46.290;44.240;2023-12-22T03:18:50;2.76;85.23
75466;HTU21D;64049;46.290;44.240;2023-12-22T03:21:17;2.70;85.11
75466;HTU21D;64049;46.290;44.240;2023-12-22T03:23:44;2.65;85.06
75466;HTU21D;64049;46.290;44.240;2023-12-22T03:26:11;2.60;84.99
75466;HTU21D;64049;46.290;44.240;2023-12-22T03:28:37;2.57;84.96
75466;HTU21D;64049;46.290;44.240;2023-12-22T03:31:04;2.54;84.93
75466;HTU21D;64049;46.290;44.240;2023-12-22T03:33:30;2.51;84.90
75466;HTU21D;64049;46.290;44.240;2023-12-22T03:35:55;2.49;84.90
75466;HTU21D;64049;46.290;44.240;2023-12-22T03:38:21;2.46;84.90
75466;HTU21D;64049;46.290;44.240;2023-12-22T03:40:48;2.44;84.87
75466;HTU21D;64049;46.290;44.240;2023-12-22T03:43:14;2.41;84.85
75466;HTU21D;64049;46.290;44.240;2023-12-22T03:45:40;2.39;84.86
75466;HTU21D;64049;46.290;44.240;2023-12-22T03:48:07;2.38;84.85
75466;HTU21D;64049;46.290;44.240;2023-12-22T03:50:33;2.39;84.87
75466;HTU21D;64049;46.290;44.240;2023-12-22T04:25:08;2.84;85.70
75466;HTU21D;64049;46.290;44.240;2023-12-22T04:27:35;2.87;85.55
75466;HTU21D;64049;46.290;44.240;2023-12-22T04:30:01;2.84;85.38
75466;HTU21D;64049;46.290;44.240;2023-12-22T04:32:27;2.78;85.26
75466;HTU21D;64049;46.290;44.240;2023-12-22T04:34:52;2.74;85.22
75466;HTU21D;64049;46.290;44.240;2023-12-22T04:37:18;2.69;85.14
75466;HTU21D;64049;46.290;44.240;2023-12-22T04:39:44;2.64;85.14
75466;HTU21D;64049;46.290;44.240;2023-12-22T04:42:10;2.60;85.12
75466;HTU21D;64049;46.290;44.240;2023-12-22T04:44:36;2.56;85.11
75466;HTU21D;64049;46.290;44.240;2023-12-22T04:47:02;2.53;85.11
75466;HTU21D;64049;46.290;44.240;2023-12-22T04:49:28;2.52;85.13
75466;HTU21D;64049;46.290;44.240;2023-12-22T04:51:54;2.51;85.11
75466;HTU21D;64049;46.290;44.240;2023-12-22T04:54:20;2.50;85.10
75466;HTU21D;64049;46.290;44.240;2023-12-22T04:56:46;2.46;85.09
75466;HTU21D;64049;46.290;44.240;2023-12-22T04:59:12;2.46;85.09
75466;HTU21D;64049;46.290;44.240;2023-12-22T05:01:38;2.46;85.06
75466;HTU21D;64049;46.290;44.240;2023-12-22T05:04:04;2.46;85.05
75466;HTU21D;64049;46.290;44.240;2023-12-22T05:06:30;2.47;85.02
75466;HTU21D;64049;46.290;44.240;2023-12-22T05:08:56;2.44;85.00
75466;HTU21D;64049;46.290;44.240;2023-12-22T05:11:22;2.46;85.00
75466;HTU21D;64049;46.290;44.240;2023-12-22T05:13:48;2.47;84.98
75466;HTU21D;64049;46.290;44.240;2023-12-22T05:16:15;2.47;84.94
75466;HTU21D;64049;46.290;44.240;2023-12-22T05:18:51;2.46;84.93
75466;HTU21D;64049;46.290;44.240;2023-12-22T05:21:42;2.50;84.92
75466;HTU21D;64049;46.290;44.240;2023-12-22T05:24:53;2.53;84.87
75466;HTU21D;64049;46.290;44.240;2023-12-22T06:16:16;4.00;83.94
75466;HTU21D;64049;46.290;44.240;2023-12-22T06:18:44;4.09;83.91
75466;HTU21D;64049;46.290;44.240;2023-12-22T06:21:10;4.15;83.89
75466;HTU21D;64049;46.290;44.240;2023-12-22T06:23:36;4.22;83.92
75466;HTU21D;64049;46.290;44.240;2023-12-22T06:26:08;4.34;83.90
75466;HTU21D;64049;46.290;44.240;2023-12-22T06:28:34;4.44;83.82
75466;HTU21D;64049;46.290;44.240;2023-12-22T06:31:02;4.52;83.74
75466;HTU21D;64049;46.290;44.240;2023-12-22T06:33:28;4.54;83.71
75466;HTU21D;64049;46.290;44.240;2023-12-22T06:35:54;4.57;83.68
75466;HTU21D;64049;46.290;44.240;2023-12-22T06:38:20;4.57;83.74
75466;HTU21D;64049;46.290;44.240;2023-12-22T06:40:46;4.66;83.79
75466;HTU21D;64049;46.290;44.240;2023-12-22T06:43:13;4.69;83.73
75466;HTU21D;64049;46.290;44.240;2023-12-22T06:45:40;4.71;83.78
75466;HTU21D;64049;46.290;44.240;2023-12-22T06:48:07;4.74;83.80
75466;HTU21D;64049;46.290;44.240;2023-12-22T06:50:35;4.75;83.81
75466;HTU21D;64049;46.290;44.240;2023-12-22T06:53:02;4.75;83.84
75466;HTU21D;64049;46.290;44.240;2023-12-22T06:55:29;4.77;83.89
75466;HTU21D;64049;46.290;44.240;2023-12-22T06:57:55;4.82;83.88
75466;HTU21D;64049;46.290;44.240;2023-12-22T07:00:21;4.90;83.85
75466;HTU21D;64049;46.290;44.240;2023-12-22T07:02:47;4.96;83.74
75466;HTU21D;64049;46.290;44.240;2023-12-22T07:07:48;4.98;83.62
75466;HTU21D;64049;46.290;44.240;2023-12-22T07:10:14;5.06;83.69
75466;HTU21D;64049;46.290;44.240;2023-12-22T07:12:40;5.19;83.61
75466;HTU21D;64049;46.290;44.240;2023-12-22T07:15:06;5.30;83.47
75466;HTU21D;64049;46.290;44.240;2023-12-22T07:17:33;5.42;83.31
75466;HTU21D;64049;46.290;44.240;2023-12-22T07:19:59;5.52;83.12
75466;HTU21D;64049;46.290;44.240;2023-12-22T07:22:25;5.60;83.06
75466;HTU21D;64049;46.290;44.240;2023-12-22T07:24:51;5.64;82.91
75466;HTU21D;64049;46.290;44.240;2023-12-22T07:27:18;5.71;82.95
75466;HTU21D;64049;46.290;44.240;2023-12-22T07:29:44;5.80;82.80
75466;HTU21D;64049;46.290;44.240;2023-12-22T07:32:10;5.85;82.74
75466;HTU21D;64049;46.290;44.240;2023-12-22T07:34:36;5.87;82.66
75466;HTU21D;64049;46.290;44.240;2023-12-22T07:37:02;5.81;82.68
75466;HTU21D;64049;46.290;44.240;2023-12-22T07:39:28;5.72;82.81
75466;HTU21D;64049;46.290;44.240;2023-12-22T07:41:54;5.74;82.94
75466;HTU21D;64049;46.290;44.240;2023-12-22T07:44:20;5.83;82.98
75466;HTU21D;64049;46.290;44.240;2023-12-22T07:46:56;5.92;82.94
75466;HTU21D;64049;46.290;44.240;2023-12-22T07:49:22;6.05;82.78
75466;HTU21D;64049;46.290;44.240;2023-12-22T07:51:49;5.98;82.58
75466;HTU21D;64049;46.290;44.240;2023-12-22T07:54:17;6.00;82.65
75466;HTU21D;64049;46.290;44.240;2023-12-22T07:56:44;6.12;82.55
75466;HTU21D;64049;46.290;44.240;2023-12-22T07:59:09;6.17;82.41
75466;HTU21D;64049;46.290;44.240;2023-12-22T08:01:35;6.13;82.33
75466;HTU21D;64049;46.290;44.240;2023-12-22T08:04:02;6.15;82.46
75466;HTU21D;64049;46.290;44.240;2023-12-22T08:06:28;6.17;82.40
75466;HTU21D;64049;46.290;44.240;2023-12-22T08:08:54;6.17;82.49
75466;HTU21D;64049;46.290;44.240;2023-12-22T08:11:20;6.26;82.50
75466;HTU21D;64049;46.290;44.240;2023-12-22T08:13:47;6.15;82.29
75466;HTU21D;64049;46.290;44.240;2023-12-22T08:16:13;6.04;82.39
75466;HTU21D;64049;46.290;44.240;2023-12-22T08:31:34;6.86;80.36
75466;HTU21D;64049;46.290;44.240;2023-12-22T08:34:00;6.86;80.11
75466;HTU21D;64049;46.290;44.240;2023-12-22T08:36:26;6.80;80.13
75466;HTU21D;64049;46.290;44.240;2023-12-22T08:38:52;6.70;80.33
75466;HTU21D;64049;46.290;44.240;2023-12-22T08:41:18;6.70;80.46
75466;HTU21D;64049;46.290;44.240;2023-12-22T08:43:44;6.71;80.49
75466;HTU21D;64049;46.290;44.240;2023-12-22T08:46:10;6.74;80.46
75466;HTU21D;64049;46.290;44.240;2023-12-22T08:48:39;6.70;80.46
75466;HTU21D;64049;46.290;44.240;2023-12-22T08:51:05;6.68;80.54
75466;HTU21D;64049;46.290;44.240;2023-12-22T08:53:33;6.74;80.56
75466;HTU21D;64049;46.290;44.240;2023-12-22T08:56:02;6.74;80.48
75466;HTU21D;64049;46.290;44.240;2023-12-22T08:58:29;6.68;80.59
75466;HTU21D;64049;46.290;44.240;2023-12-22T09:00:55;6.70;80.63
75466;HTU21D;64049;46.290;44.240;2023-12-22T09:03:21;6.75;80.63
75466;HTU21D;64049;46.290;44.240;2023-12-22T09:05:47;6.71;80.56
75466;HTU21D;64049;46.290;44.240;2023-12-22T09:08:13;6.58;80.69
75466;HTU21D;64049;46.290;44.240;2023-12-22T09:10:39;6.54;80.89
75466;HTU21D;64049;46.290;44.240;2023-12-22T09:13:05;6.48;80.99
75466;HTU21D;64049;46.290;44.240;2023-12-22T09:15:30;6.40;81.05
75466;HTU21D;64049;46.290;44.240;2023-12-22T09:17:56;6.28;81.17
75466;HTU21D;64049;46.290;44.240;2023-12-22T09:20:22;6.15;81.29
75466;HTU21D;64049;46.290;44.240;2023-12-22T09:22:48;6.07;81.44
75466;HTU21D;64049;46.290;44.240;2023-12-22T09:25:14;5.99;81.59
75466;HTU21D;64049;46.290;44.240;2023-12-22T09:27:40;5.97;81.70
75466;HTU21D;64049;46.290;44.240;2023-12-22T09:30:06;5.96;81.68
75466;HTU21D;64049;46.290;44.240;2023-12-22T09:32:33;5.94;81.60
75466;HTU21D;64049;46.290;44.240;2023-12-22T09:34:59;5.90;81.65
75466;HTU21D;64049;46.290;44.240;2023-12-22T09:37:26;5.96;81.64
75466;HTU21D;64049;46.290;44.240;2023-12-22T09:39:52;6.01;81.53
75466;HTU21D;64049;46.290;44.240;2023-12-22T09:42:24;6.08;81.41
75466;HTU21D;64049;46.290;44.240;2023-12-22T09:44:53;6.20;81.27
75466;HTU21D;64049;46.290;44.240;2023-12-22T09:47:22;6.28;81.10
75466;HTU21D;64049;46.290;44.240;2023-12-22T09:49:49;6.37;80.97
75466;HTU21D;64049;46.290;44.240;2023-12-22T09:52:15;6.34;80.81
75466;HTU21D;64049;46.290;44.240;2023-12-22T09:54:42;6.24;80.95
75466;HTU21D;64049;46.290;44.240;2023-12-22T09:57:09;6.22;81.07
75466;HTU21D;64049;46.290;44.240;2023-12-22T09:59:36;6.14;81.23
75466;HTU21D;64049;46.290;44.240;2023-12-22T10:02:06;6.14;81.30
75466;HTU21D;64049;46.290;44.240;2023-12-22T10:04:33;6.14;81.33
75466;HTU21D;64049;46.290;44.240;2023-12-22T10:07:01;6.12;81.36
75466;HTU21D;64049;46.290;44.240;2023-12-22T10:09:29;6.12;81.43
75466;HTU21D;64049;46.290;44.240;2023-12-22T10:11:56;6.11;81.46
75466;HTU21D;64049;46.290;44.240;2023-12-22T10:14:23;6.11;81.49
75466;HTU21D;64049;46.290;44.240;2023-12-22T10:16:51;6.08;81.46
75466;HTU21D;64049;46.290;44.240;2023-12-22T10:19:19;6.09;81.53
75466;HTU21D;64049;46.290;44.240;2023-12-22T10:21:50;6.07;81.52
75466;HTU21D;64049;46.290;44.240;2023-12-22T10:24:38;5.99;81.53
75466;HTU21D;64049;46.290;44.240;2023-12-22T10:27:05;5.94;81.64
75466;HTU21D;64049;46.290;44.240;2023-12-22T10:29:32;5.93;81.69
75466;HTU21D;64049;46.290;44.240;2023-12-22T10:32:02;5.98;81.67
75466;HTU21D;64049;46.290;44.240;2023-12-22T10:34:29;6.01;81.62
75466;HTU21D;64049;46.290;44.240;2023-12-22T10:36:58;5.99;81.55
75466;HTU21D;64049;46.290;44.240;2023-12-22T10:39:31;5.94;81.55
75466;HTU21D;64049;46.290;44.240;2023-12-22T10:41:58;5.75;81.51
75466;HTU21D;64049;46.290;44.240;2023-12-22T10:44:28;5.68;81.72
75466;HTU21D;64049;46.290;44.240;2023-12-22T10:46:55;5.76;81.74
75466;HTU21D;64049;46.290;44.240;2023-12-22T10:49:22;5.78;81.64
75466;HTU21D;64049;46.290;44.240;2023-12-22T10:51:49;5.79;81.64
75466;HTU21D;64049;46.290;44.240;2023-12-22T10:54:16;5.81;81.61
75466;HTU21D;64049;46.290;44.240;2023-12-22T10:56:42;5.82;81.59
75466;HTU21D;64049;46.290;44.240;2023-12-22T10:59:11;5.80;81.62
75466;HTU21D;64049;46.290;44.240;2023-12-22T11:01:38;5.81;81.68
75466;HTU21D;64049;46.290;44.240;2023-12-22T11:04:10;5.83;81.66
75466;HTU21D;64049;46.290;44.240;2023-12-22T11:06:44;5.83;81.62
75466;HTU21D;64049;46.290;44.240;2023-12-22T11:09:16;5.81;81.63
75466;HTU21D;64049;46.290;44.240;2023-12-22T11:11:42;5.81;81.70
75466;HTU21D;64049;46.290;44.240;2023-12-22T11:14:10;5.80;81.74
75466;HTU21D;64049;46.290;44.240;2023-12-22T11:16:37;5.78;81.78
75466;HTU21D;64049;46.290;44.240;2023-12-22T11:19:03;5.76;81.83
75466;HTU21D;64049;46.290;44.240;2023-12-22T11:21:30;5.77;81.85
75466;HTU21D;64049;46.290;44.240;2023-12-22T11:23:57;5.78;81.85
75466;HTU21D;64049;46.290;44.240;2023-12-22T11:26:24;5.80;81.83
75466;HTU21D;64049;46.290;44.240;2023-12-22T11:28:51;5.78;81.79
75466;HTU21D;64049;46.290;44.240;2023-12-22T11:31:19;5.72;81.80
75466;HTU21D;64049;46.290;44.240;2023-12-22T11:33:48;5.68;81.86
75466;HTU21D;64049;46.290;44.240;2023-12-22T11:36:16;5.65;81.90
75466;HTU21D;64049;46.290;44.240;2023-12-22T11:38:44;5.65;81.95
75466;HTU21D;64049;46.290;44.240;2023-12-22T11:41:17;5.60;81.97
75466;HTU21D;64049;46.290;44.240;2023-12-22T11:43:44;5.56;82.05
75466;HTU21D;64049;46.290;44.240;2023-12-22T11:46:11;5.56;82.07
75466;HTU21D;64049;46.290;44.240;2023-12-22T11:48:38;5.53;82.05
75466;HTU21D;64049;46.290;44.240;2023-12-22T11:51:15;5.51;82.10
75466;HTU21D;64049;46.290;44.240;2023-12-22T11:53:41;5.46;82.10
75466;HTU21D;64049;46.290;44.240;2023-12-22T11:56:09;5.43;82.17
75466;HTU21D;64049;46.290;44.240;2023-12-22T11:58:39;5.39;82.18
75466;HTU21D;64049;46.290;44.240;2023-12-22T12:01:08;5.35;82.22
75466;HTU21D;64049;46.290;44.240;2023-12-22T12:03:42;5.31;82.25
75466;HTU21D;64049;46.290;44.240;2023-12-22T12:06:15;5.31;82.31
75466;HTU21D;64049;46.290;44.240;2023-12-22T12:08:44;5.31;82.32
75466;HTU21D;64049;46.290;44.240;2023-12-22T12:11:10;5.33;82.30
75466;HTU21D;64049;46.290;44.240;2023-12-22T12:13:42;5.31;82.29
75466;HTU21D;64049;46.290;44.240;2023-12-22T12:16:08;5.30;82.30
75466;HTU21D;64049;46.290;44.240;2023-12-22T12:18:34;5.27;82.30
75466;HTU21D;64049;46.290;44.240;2023-12-22T12:21:01;5.22;82.33
75466;HTU21D;64049;46.290;44.240;2023-12-22T12:23:28;5.19;82.36
75466;HTU21D;64049;46.290;44.240;2023-12-22T12:25:55;5.16;82.42
75466;HTU21D;64049;46.290;44.240;2023-12-22T12:28:29;5.11;82.46
75466;HTU21D;64049;46.290;44.240;2023-12-22T12:31:06;5.08;82.50
75466;HTU21D;64049;46.290;44.240;2023-12-22T12:33:37;5.02;82.53
75466;HTU21D;64049;46.290;44.240;2023-12-22T12:36:05;5.02;82.59
75466;HTU21D;64049;46.290;44.240;2023-12-22T12:38:45;5.00;82.64
75466;HTU21D;64049;46.290;44.240;2023-12-22T12:41:17;5.00;82.65
75466;HTU21D;64049;46.290;44.240;2023-12-22T12:43:49;4.98;82.67
75466;HTU21D;64049;46.290;44.240;2023-12-22T12:46:17;4.94;82.68
75466;HTU21D;64049;46.290;44.240;2023-12-22T12:48:43;4.91;82.75
75466;HTU21D;64049;46.290;44.240;2023-12-22T12:51:10;4.88;82.78
75466;HTU21D;64049;46.290;44.240;2023-12-22T12:53:36;4.83;82.82
75466;HTU21D;64049;46.290;44.240;2023-12-22T12:56:04;4.81;82.86
75466;HTU21D;64049;46.290;44.240;2023-12-22T12:58:33;4.78;82.89
75466;HTU21D;64049;46.290;44.240;2023-12-22T13:01:08;4.74;82.96
75466;HTU21D;64049;46.290;44.240;2023-12-22T13:03:55;4.73;83.00
75466;HTU21D;64049;46.290;44.240;2023-12-22T13:06:22;4.71;83.00
75466;HTU21D;64049;46.290;44.240;2023-12-22T13:08:49;4.68;83.01
75466;HTU21D;64049;46.290;44.240;2023-12-22T13:11:23;4.68;83.04
75466;HTU21D;64049;46.290;44.240;2023-12-22T13:13:50;4.66;83.04
75466;HTU21D;64049;46.290;44.240;2023-12-22T13:16:21;4.64;83.08
75466;HTU21D;64049;46.290;44.240;2023-12-22T13:18:48;4.60;83.13
75466;HTU21D;64049;46.290;44.240;2023-12-22T13:21:15;4.59;83.14
75466;HTU21D;64049;46.290;44.240;2023-12-22T13:23:41;4.56;83.20
75466;HTU21D;64049;46.290;44.240;2023-12-22T13:26:20;4.56;83.21
75466;HTU21D;64049;46.290;44.240;2023-12-22T13:28:46;4.56;83.20
75466;HTU21D;64049;46.290;44.240;2023-12-22T13:31:14;4.53;83.23
75466;HTU21D;64049;46.290;44.240;2023-12-22T13:33:40;4.57;83.24
75466;HTU21D;64049;46.290;44.240;2023-12-22T13:36:07;4.57;83.22
75466;HTU21D;64049;46.290;44.240;2023-12-22T13:38:33;4.56;83.21
75466;HTU21D;64049;46.290;44.240;2023-12-22T13:41:02;4.53;83.24
75466;HTU21D;64049;46.290;44.240;2023-12-22T13:43:29;4.52;83.26
75466;HTU21D;64049;46.290;44.240;2023-12-22T13:45:57;4.52;83.26
75466;HTU21D;64049;46.290;44.240;2023-12-22T13:48:24;4.53;83.28
75466;HTU21D;64049;46.290;44.240;2023-12-22T13:51:00;4.51;83.29
75466;HTU21D;64049;46.290;44.240;2023-12-22T13:53:28;4.47;83.32
75466;HTU21D;64049;46.290;44.240;2023-12-22T13:55:59;4.45;83.36
75466;HTU21D;64049;46.290;44.240;2023-12-22T13:58:25;4.43;83.39
75466;HTU21D;64049;46.290;44.240;2023-12-22T14:00:53;4.41;83.43
75466;HTU21D;64049;46.290;44.240;2023-12-22T14:03:20;4.38;83.47
75466;HTU21D;64049;46.290;44.240;2023-12-22T14:05:49;4.36;83.48
75466;HTU21D;64049;46.290;44.240;2023-12-22T14:08:16;4.36;83.52
75466;HTU21D;64049;46.290;44.240;2023-12-22T14:10:46;4.35;83.55
75466;HTU21D;64049;46.290;44.240;2023-12-22T14:13:13;4.33;83.54
75466;HTU21D;64049;46.290;44.240;2023-12-22T14:15:41;4.33;83.55
75466;HTU21D;64049;46.290;44.240;2023-12-22T14:18:09;4.33;83.56
75466;HTU21D;64049;46.290;44.240;2023-12-22T14:20:36;4.32;83.54
75466;HTU21D;64049;46.290;44.240;2023-12-22T14:23:02;4.30;83.55
75466;HTU21D;64049;46.290;44.240;2023-12-22T14:25:28;4.27;83.60
75466;HTU21D;64049;46.290;44.240;2023-12-22T14:27:57;4.28;83.62
75466;HTU21D;64049;46.290;44.240;2023-12-22T14:30:24;4.28;83.61
75466;HTU21D;64049;46.290;44.240;2023-12-22T14:32:50;4.24;83.65
75466;HTU21D;64049;46.290;44.240;2023-12-22T14:35:17;4.24;83.66
75466;HTU21D;64049;46.290;44.240;2023-12-22T14:37:44;4.23;83.68
75466;HTU21D;64049;46.290;44.240;2023-12-22T14:40:12;4.24;83.69
75466;HTU21D;64049;46.290;44.240;2023-12-22T14:42:39;4.24;83.71
75466;HTU21D;64049;46.290;44.240;2023-12-22T14:45:06;4.27;83.70
75466;HTU21D;64049;46.290;44.240;2023-12-22T14:47:32;4.27;83.68
75466;HTU21D;64049;46.290;44.240;2023-12-22T14:49:59;4.24;83.71
75466;HTU21D;64049;46.290;44.240;2023-12-22T14:52:30;4.24;83.71
75466;HTU21D;64049;46.290;44.240;2023-12-22T14:54:59;4.23;83.72
75466;HTU21D;64049;46.290;44.240;2023-12-22T14:57:26;4.20;83.76
75466;HTU21D;64049;46.290;44.240;2023-12-22T14:59:54;4.20;83.79
75466;HTU21D;64049;46.290;44.240;2023-12-22T15:02:20;4.19;83.81
75466;HTU21D;64049;46.290;44.240;2023-12-22T15:04:48;4.19;83.83
75466;HTU21D;64049;46.290;44.240;2023-12-22T15:07:15;4.18;83.81
75466;HTU21D;64049;46.290;44.240;2023-12-22T15:09:43;4.18;83.84
75466;HTU21D;64049;46.290;44.240;2023-12-22T15:12:11;4.16;83.83
75466;HTU21D;64049;46.290;44.240;2023-12-22T15:14:37;4.16;83.85
75466;HTU21D;64049;46.290;44.240;2023-12-22T15:17:04;4.17;83.86
75466;HTU21D;64049;46.290;44.240;2023-12-22T15:19:30;4.15;83.85
75466;HTU21D;64049;46.290;44.240;2023-12-22T15:21:56;4.15;83.87
75466;HTU21D;64049;46.290;44.240;2023-12-22T15:24:23;4.16;83.87
75466;HTU21D;64049;46.290;44.240;2023-12-22T15:26:49;4.16;83.87
75466;HTU21D;64049;46.290;44.240;2023-12-22T15:29:16;4.16;83.86
75466;HTU21D;64049;46.290;44.240;2023-12-22T15:31:47;4.15;83.86
75466;HTU21D;64049;46.290;44.240;2023-12-22T15:34:14;4.15;83.85
75466;HTU21D;64049;46.290;44.240;2023-12-22T15:36:40;4.15;83.87
75466;HTU21D;64049;46.290;44.240;2023-12-22T15:39:06;4.16;83.86
75466;HTU21D;64049;46.290;44.240;2023-12-22T15:41:33;4.17;83.88
75466;HTU21D;64049;46.290;44.240;2023-12-22T15:43:59;4.18;83.88
75466;HTU21D;64049;46.290;44.240;2023-12-22T15:46:26;4.18;83.87
75466;HTU21D;64049;46.290;44.240;2023-12-22T15:48:59;4.17;83.88
75466;HTU21D;64049;46.290;44.240;2023-12-22T15:51:26;4.15;83.90
75466;HTU21D;64049;46.290;44.240;2023-12-22T15:53:52;4.14;83.93
75466;HTU21D;64049;46.290;44.240;2023-12-22T15:56:18;4.13;83.96
75466;HTU21D;64049;46.290;44.240;2023-12-22T15:58:44;4.12;83.97
75466;HTU21D;64049;46.290;44.240;2023-12-22T16:01:10;4.10;83.98
75466;HTU21D;64049;46.290;44.240;2023-12-22T16:03:43;4.13;83.98
75466;HTU21D;64049;46.290;44.240;2023-12-22T16:06:15;4.12;83.99
75466;HTU21D;64049;46.290;44.240;2023-12-22T17:18:26;3.82;84.37
75466;HTU21D;64049;46.290;44.240;2023-12-22T17:21:45;3.79;84.41
75466;HTU21D;64049;46.290;44.240;2023-12-22T17:43:10;3.78;84.48
